sensor_id;sensor_type;location;lat;lon;timestamp;temperature;humidity
24446;DHT22;13347;50.984;5.822;2023-05-13T00:01:58;10.30;99.90
24446;DHT22;13347;50.984;5.822;2023-05-13T00:04:25;10.20;99.90
24446;DHT22;13347;50.984;5.822;2023-05-13T00:06:52;10.20;99.90
24446;DHT22;13347;50.984;5.822;2023-05-13T00:09:19;10.10;99.90
24446;DHT22;13347;50.984;5.822;2023-05-13T00:11:45;10.10;99.90
24446;DHT22;13347;50.984;5.822;2023-05-13T00:14:12;10.10;99.90
24446;DHT22;13347;50.984;5.822;2023-05-13T00:16:39;10.10;99.90
24446;DHT22;13347;50.984;5.822;2023-05-13T00:19:09;10.10;99.90
24446;DHT22;13347;50.984;5.822;2023-05-13T00:21:36;10.00;99.90
24446;DHT22;13347;50.984;5.822;2023-05-13T00:24:03;10.00;99.90
24446;DHT22;13347;50.984;5.822;2023-05-13T00:26:30;10.10;99.90
24446;DHT22;13347;50.984;5.822;2023-05-13T00:28:57;10.00;99.90
24446;DHT22;13347;50.984;5.822;2023-05-13T00:31:24;9.90;99.90
24446;DHT22;13347;50.984;5.822;2023-05-13T00:33:51;9.90;99.90
24446;DHT22;13347;50.984;5.822;2023-05-13T00:36:19;10.00;99.90
24446;DHT22;13347;50.984;5.822;2023-05-13T00:38:46;10.00;99.90
24446;DHT22;13347;50.984;5.822;2023-05-13T00:41:13;9.90;99.90
24446;DHT22;13347;50.984;5.822;2023-05-13T00:43:40;9.80;99.90
24446;DHT22;13347;50.984;5.822;2023-05-13T00:46:07;9.90;99.90
24446;DHT22;13347;50.984;5.822;2023-05-13T00:48:33;9.70;99.90
24446;DHT22;13347;50.984;5.822;2023-05-13T00:51:00;9.80;99.90
24446;DHT22;13347;50.984;5.822;2023-05-13T00:53:29;9.90;99.90
24446;DHT22;13347;50.984;5.822;2023-05-13T00:55:56;10.00;99.90
24446;DHT22;13347;50.984;5.822;2023-05-13T00:58:23;10.00;99.90
24446;DHT22;13347;50.984;5.822;2023-05-13T01:00:52;10.10;99.90
24446;DHT22;13347;50.984;5.822;2023-05-13T01:03:24;10.10;99.90
24446;DHT22;13347;50.984;5.822;2023-05-13T01:05:55;10.10;99.90
24446;DHT22;13347;50.984;5.822;2023-05-13T01:08:32;10.00;99.90
24446;DHT22;13347;50.984;5.822;2023-05-13T01:11:05;10.00;99.90
24446;DHT22;13347;50.984;5.822;2023-05-13T01:13:35;10.00;99.90
24446;DHT22;13347;50.984;5.822;2023-05-13T01:16:10;9.90;99.90
24446;DHT22;13347;50.984;5.822;2023-05-13T01:18:39;9.80;99.90
24446;DHT22;13347;50.984;5.822;2023-05-13T01:21:07;9.80;99.90
24446;DHT22;13347;50.984;5.822;2023-05-13T01:23:36;9.70;99.90
24446;DHT22;13347;50.984;5.822;2023-05-13T01:26:03;9.60;99.90
24446;DHT22;13347;50.984;5.822;2023-05-13T01:28:30;9.50;99.90
24446;DHT22;13347;50.984;5.822;2023-05-13T01:30:57;9.50;99.90
24446;DHT22;13347;50.984;5.822;2023-05-13T01:33:24;9.40;99.90
24446;DHT22;13347;50.984;5.822;2023-05-13T01:35:51;9.30;99.90
24446;DHT22;13347;50.984;5.822;2023-05-13T01:38:19;9.40;99.90
24446;DHT22;13347;50.984;5.822;2023-05-13T01:40:48;9.40;99.90
24446;DHT22;13347;50.984;5.822;2023-05-13T01:43:15;9.30;99.90
24446;DHT22;13347;50.984;5.822;2023-05-13T01:45:43;9.40;99.90
24446;DHT22;13347;50.984;5.822;2023-05-13T01:48:09;9.40;99.90
24446;DHT22;13347;50.984;5.822;2023-05-13T01:50:36;9.40;99.90
24446;DHT22;13347;50.984;5.822;2023-05-13T01:53:03;9.30;99.90
24446;DHT22;13347;50.984;5.822;2023-05-13T01:55:30;9.20;99.90
24446;DHT22;13347;50.984;5.822;2023-05-13T01:57:59;9.20;99.90
24446;DHT22;13347;50.984;5.822;2023-05-13T02:00:26;9.40;99.90
24446;DHT22;13347;50.984;5.822;2023-05-13T02:02:53;9.40;99.90
24446;DHT22;13347;50.984;5.822;2023-05-13T02:05:19;9.30;99.90
24446;DHT22;13347;50.984;5.822;2023-05-13T02:07:46;9.30;99.90
24446;DHT22;13347;50.984;5.822;2023-05-13T02:10:13;9.30;99.90
24446;DHT22;13347;50.984;5.822;2023-05-13T02:12:40;9.40;99.90
24446;DHT22;13347;50.984;5.822;2023-05-13T02:15:09;9.40;99.90
24446;DHT22;13347;50.984;5.822;2023-05-13T02:17:36;9.30;99.90
24446;DHT22;13347;50.984;5.822;2023-05-13T02:20:03;9.30;99.90
24446;DHT22;13347;50.984;5.822;2023-05-13T02:22:30;9.50;99.90
24446;DHT22;13347;50.984;5.822;2023-05-13T02:24:57;9.50;99.90
24446;DHT22;13347;50.984;5.822;2023-05-13T02:27:24;9.30;99.90
24446;DHT22;13347;50.984;5.822;2023-05-13T02:29:51;9.30;99.90
24446;DHT22;13347;50.984;5.822;2023-05-13T02:32:19;9.40;99.90
24446;DHT22;13347;50.984;5.822;2023-05-13T02:34:46;9.50;99.90
24446;DHT22;13347;50.984;5.822;2023-05-13T02:37:13;9.30;99.90
24446;DHT22;13347;50.984;5.822;2023-05-13T02:39:40;9.20;99.90
24446;DHT22;13347;50.984;5.822;2023-05-13T02:42:07;9.10;99.90
24446;DHT22;13347;50.984;5.822;2023-05-13T02:44:34;9.00;99.90
24446;DHT22;13347;50.984;5.822;2023-05-13T02:47:01;9.00;99.90
24446;DHT22;13347;50.984;5.822;2023-05-13T02:49:29;8.90;99.90
24446;DHT22;13347;50.984;5.822;2023-05-13T02:51:56;8.90;99.90
24446;DHT22;13347;50.984;5.822;2023-05-13T02:54:23;8.90;99.90
24446;DHT22;13347;50.984;5.822;2023-05-13T02:56:49;8.90;99.90
24446;DHT22;13347;50.984;5.822;2023-05-13T02:59:16;8.90;99.90
24446;DHT22;13347;50.984;5.822;2023-05-13T03:01:43;8.90;99.90
24446;DHT22;13347;50.984;5.822;2023-05-13T03:04:10;8.80;99.90
24446;DHT22;13347;50.984;5.822;2023-05-13T03:06:38;8.80;99.90
24446;DHT22;13347;50.984;5.822;2023-05-13T03:09:05;8.70;99.90
24446;DHT22;13347;50.984;5.822;2023-05-13T03:11:32;8.70;99.90
24446;DHT22;13347;50.984;5.822;2023-05-13T03:13:59;8.80;99.90
24446;DHT22;13347;50.984;5.822;2023-05-13T03:16:26;8.80;99.90
24446;DHT22;13347;50.984;5.822;2023-05-13T03:18:53;8.80;99.90
24446;DHT22;13347;50.984;5.822;2023-05-13T03:21:19;8.90;99.90
24446;DHT22;13347;50.984;5.822;2023-05-13T03:23:48;8.90;99.90
24446;DHT22;13347;50.984;5.822;2023-05-13T03:26:14;8.90;99.90
24446;DHT22;13347;50.984;5.822;2023-05-13T03:28:42;8.90;99.90
24446;DHT22;13347;50.984;5.822;2023-05-13T03:31:08;8.90;99.90
24446;DHT22;13347;50.984;5.822;2023-05-13T03:33:35;8.90;99.90
24446;DHT22;13347;50.984;5.822;2023-05-13T03:36:03;8.80;99.90
24446;DHT22;13347;50.984;5.822;2023-05-13T03:38:30;8.80;99.90
24446;DHT22;13347;50.984;5.822;2023-05-13T03:40:58;8.80;99.90
24446;DHT22;13347;50.984;5.822;2023-05-13T03:43:25;8.80;99.90
24446;DHT22;13347;50.984;5.822;2023-05-13T03:45:52;8.80;99.90
24446;DHT22;13347;50.984;5.822;2023-05-13T03:48:19;8.80;99.90
24446;DHT22;13347;50.984;5.822;2023-05-13T03:50:46;8.80;99.90
24446;DHT22;13347;50.984;5.822;2023-05-13T03:53:13;8.90;99.90
24446;DHT22;13347;50.984;5.822;2023-05-13T03:55:39;8.80;99.90
24446;DHT22;13347;50.984;5.822;2023-05-13T03:58:11;8.90;99.90
24446;DHT22;13347;50.984;5.822;2023-05-13T04:00:38;8.80;99.90
24446;DHT22;13347;50.984;5.822;2023-05-13T04:03:05;8.80;99.90
24446;DHT22;13347;50.984;5.822;2023-05-13T04:05:32;8.80;99.90
24446;DHT22;13347;50.984;5.822;2023-05-13T04:07:59;8.90;99.90
24446;DHT22;13347;50.984;5.822;2023-05-13T04:10:26;8.90;99.90
24446;DHT22;13347;50.984;5.822;2023-05-13T04:12:53;8.80;99.90
24446;DHT22;13347;50.984;5.822;2023-05-13T04:15:21;8.80;99.90
24446;DHT22;13347;50.984;5.822;2023-05-13T04:17:48;8.80;99.90
24446;DHT22;13347;50.984;5.822;2023-05-13T04:20:15;8.90;99.90
24446;DHT22;13347;50.984;5.822;2023-05-13T04:22:42;9.00;99.90
24446;DHT22;13347;50.984;5.822;2023-05-13T04:25:09;9.10;99.90
24446;DHT22;13347;50.984;5.822;2023-05-13T04:27:36;9.30;99.90
24446;DHT22;13347;50.984;5.822;2023-05-13T04:30:03;9.40;99.90
24446;DHT22;13347;50.984;5.822;2023-05-13T04:32:31;9.50;99.90
24446;DHT22;13347;50.984;5.822;2023-05-13T04:34:58;9.60;99.90
24446;DHT22;13347;50.984;5.822;2023-05-13T04:37:25;9.80;99.90
24446;DHT22;13347;50.984;5.822;2023-05-13T04:39:52;10.00;99.90
24446;DHT22;13347;50.984;5.822;2023-05-13T04:42:19;10.10;99.90
24446;DHT22;13347;50.984;5.822;2023-05-13T04:44:46;10.20;99.90
24446;DHT22;13347;50.984;5.822;2023-05-13T04:47:13;10.20;99.90
24446;DHT22;13347;50.984;5.822;2023-05-13T04:49:41;10.20;99.90
24446;DHT22;13347;50.984;5.822;2023-05-13T04:52:08;10.20;99.90
24446;DHT22;13347;50.984;5.822;2023-05-13T04:54:37;10.20;99.90
24446;DHT22;13347;50.984;5.822;2023-05-13T04:57:04;10.20;99.90
24446;DHT22;13347;50.984;5.822;2023-05-13T04:59:31;10.20;99.90
24446;DHT22;13347;50.984;5.822;2023-05-13T05:01:58;10.20;99.90
24446;DHT22;13347;50.984;5.822;2023-05-13T05:04:25;10.20;99.90
24446;DHT22;13347;50.984;5.822;2023-05-13T05:06:54;10.30;99.90
24446;DHT22;13347;50.984;5.822;2023-05-13T05:09:21;10.40;99.90
24446;DHT22;13347;50.984;5.822;2023-05-13T05:11:48;10.80;99.90
24446;DHT22;13347;50.984;5.822;2023-05-13T05:14:15;11.30;99.90
24446;DHT22;13347;50.984;5.822;2023-05-13T05:16:42;11.80;99.90
24446;DHT22;13347;50.984;5.822;2023-05-13T05:19:09;12.20;99.90
24446;DHT22;13347;50.984;5.822;2023-05-13T05:21:36;12.70;99.90
24446;DHT22;13347;50.984;5.822;2023-05-13T05:24:04;13.10;99.90
24446;DHT22;13347;50.984;5.822;2023-05-13T05:26:31;13.80;99.90
24446;DHT22;13347;50.984;5.822;2023-05-13T05:28:58;14.50;99.90
24446;DHT22;13347;50.984;5.822;2023-05-13T05:31:25;14.60;99.90
24446;DHT22;13347;50.984;5.822;2023-05-13T05:33:52;14.90;99.90
24446;DHT22;13347;50.984;5.822;2023-05-13T05:36:20;15.20;99.90
24446;DHT22;13347;50.984;5.822;2023-05-13T05:38:47;15.60;99.90
24446;DHT22;13347;50.984;5.822;2023-05-13T05:41:15;15.80;99.90
24446;DHT22;13347;50.984;5.822;2023-05-13T05:43:42;16.00;99.90
24446;DHT22;13347;50.984;5.822;2023-05-13T05:46:09;16.20;99.90
24446;DHT22;13347;50.984;5.822;2023-05-13T05:48:36;16.10;99.90
24446;DHT22;13347;50.984;5.822;2023-05-13T05:51:03;16.10;99.90
24446;DHT22;13347;50.984;5.822;2023-05-13T05:53:30;16.10;99.90
24446;DHT22;13347;50.984;5.822;2023-05-13T05:55:57;16.10;99.90
24446;DHT22;13347;50.984;5.822;2023-05-13T05:58:25;16.30;99.90
24446;DHT22;13347;50.984;5.822;2023-05-13T06:00:52;16.40;99.90
24446;DHT22;13347;50.984;5.822;2023-05-13T06:03:20;16.30;1.00
24446;DHT22;13347;50.984;5.822;2023-05-13T06:05:46;16.50;1.00
24446;DHT22;13347;50.984;5.822;2023-05-13T06:08:13;16.60;1.00
24446;DHT22;13347;50.984;5.822;2023-05-13T06:10:40;16.60;96.00
24446;DHT22;13347;50.984;5.822;2023-05-13T06:13:07;17.00;1.00
24446;DHT22;13347;50.984;5.822;2023-05-13T06:15:36;17.30;99.90
24446;DHT22;13347;50.984;5.822;2023-05-13T06:18:03;17.30;92.50
24446;DHT22;13347;50.984;5.822;2023-05-13T06:20:30;16.80;1.00
24446;DHT22;13347;50.984;5.822;2023-05-13T06:22:57;16.90;99.90
24446;DHT22;13347;50.984;5.822;2023-05-13T06:25:24;17.10;99.90
24446;DHT22;13347;50.984;5.822;2023-05-13T06:27:51;17.40;1.00
24446;DHT22;13347;50.984;5.822;2023-05-13T06:30:18;17.80;1.00
24446;DHT22;13347;50.984;5.822;2023-05-13T06:32:46;17.90;1.00
24446;DHT22;13347;50.984;5.822;2023-05-13T06:35:13;18.00;1.00
24446;DHT22;13347;50.984;5.822;2023-05-13T06:37:40;18.70;1.00
24446;DHT22;13347;50.984;5.822;2023-05-13T06:40:07;18.80;99.90
24446;DHT22;13347;50.984;5.822;2023-05-13T06:42:34;18.60;99.90
24446;DHT22;13347;50.984;5.822;2023-05-13T06:45:05;18.50;1.00
24446;DHT22;13347;50.984;5.822;2023-05-13T06:47:32;17.90;94.30
24446;DHT22;13347;50.984;5.822;2023-05-13T06:50:01;17.40;99.90
24446;DHT22;13347;50.984;5.822;2023-05-13T06:52:28;17.10;99.90
24446;DHT22;13347;50.984;5.822;2023-05-13T06:54:55;17.60;99.90
24446;DHT22;13347;50.984;5.822;2023-05-13T06:57:24;17.90;99.90
24446;DHT22;13347;50.984;5.822;2023-05-13T06:59:51;18.10;1.00
24446;DHT22;13347;50.984;5.822;2023-05-13T07:02:18;18.30;1.00
24446;DHT22;13347;50.984;5.822;2023-05-13T07:04:44;18.30;1.00
24446;DHT22;13347;50.984;5.822;2023-05-13T07:07:13;18.70;1.00
24446;DHT22;13347;50.984;5.822;2023-05-13T07:09:40;18.60;1.00
24446;DHT22;13347;50.984;5.822;2023-05-13T07:12:07;18.90;1.00
24446;DHT22;13347;50.984;5.822;2023-05-13T07:14:35;19.30;1.00
24446;DHT22;13347;50.984;5.822;2023-05-13T07:17:02;19.00;1.00
24446;DHT22;13347;50.984;5.822;2023-05-13T07:19:29;19.40;1.00
24446;DHT22;13347;50.984;5.822;2023-05-13T07:21:56;19.50;1.00
24446;DHT22;13347;50.984;5.822;2023-05-13T07:24:24;19.50;1.00
24446;DHT22;13347;50.984;5.822;2023-05-13T07:26:51;19.30;1.00
24446;DHT22;13347;50.984;5.822;2023-05-13T07:29:18;19.70;1.00
24446;DHT22;13347;50.984;5.822;2023-05-13T07:31:45;19.60;1.00
24446;DHT22;13347;50.984;5.822;2023-05-13T07:34:12;19.10;1.00
24446;DHT22;13347;50.984;5.822;2023-05-13T07:36:39;18.80;1.00
24446;DHT22;13347;50.984;5.822;2023-05-13T07:39:06;18.30;1.00
24446;DHT22;13347;50.984;5.822;2023-05-13T07:41:35;17.80;1.00
24446;DHT22;13347;50.984;5.822;2023-05-13T07:44:02;17.30;1.00
24446;DHT22;13347;50.984;5.822;2023-05-13T07:46:30;17.10;1.00
24446;DHT22;13347;50.984;5.822;2023-05-13T07:48:57;17.50;1.00
24446;DHT22;13347;50.984;5.822;2023-05-13T07:51:24;17.60;1.00
24446;DHT22;13347;50.984;5.822;2023-05-13T07:53:51;17.30;1.00
24446;DHT22;13347;50.984;5.822;2023-05-13T07:56:18;17.20;1.00
24446;DHT22;13347;50.984;5.822;2023-05-13T07:58:46;17.40;1.00
24446;DHT22;13347;50.984;5.822;2023-05-13T08:01:14;17.50;1.00
24446;DHT22;13347;50.984;5.822;2023-05-13T08:03:41;17.40;1.00
24446;DHT22;13347;50.984;5.822;2023-05-13T08:06:08;17.30;1.00
24446;DHT22;13347;50.984;5.822;2023-05-13T08:08:35;17.40;1.00
24446;DHT22;13347;50.984;5.822;2023-05-13T08:11:02;17.70;1.00
24446;DHT22;13347;50.984;5.822;2023-05-13T08:13:29;17.80;1.00
24446;DHT22;13347;50.984;5.822;2023-05-13T08:16:00;17.70;1.00
24446;DHT22;13347;50.984;5.822;2023-05-13T08:18:27;17.50;1.00
24446;DHT22;13347;50.984;5.822;2023-05-13T08:20:54;17.60;1.00
24446;DHT22;13347;50.984;5.822;2023-05-13T08:23:21;17.70;1.00
24446;DHT22;13347;50.984;5.822;2023-05-13T08:25:49;17.40;1.00
24446;DHT22;13347;50.984;5.822;2023-05-13T08:28:16;17.50;1.00
24446;DHT22;13347;50.984;5.822;2023-05-13T08:30:43;17.70;1.00
24446;DHT22;13347;50.984;5.822;2023-05-13T08:33:11;17.80;1.00
24446;DHT22;13347;50.984;5.822;2023-05-13T08:35:38;18.00;1.00
24446;DHT22;13347;50.984;5.822;2023-05-13T08:38:05;17.90;1.00
24446;DHT22;13347;50.984;5.822;2023-05-13T08:40:32;17.90;1.00
24446;DHT22;13347;50.984;5.822;2023-05-13T08:42:59;18.00;1.00
24446;DHT22;13347;50.984;5.822;2023-05-13T08:45:27;18.30;1.00
24446;DHT22;13347;50.984;5.822;2023-05-13T08:47:55;18.80;99.90
24446;DHT22;13347;50.984;5.822;2023-05-13T08:50:23;19.50;1.00
24446;DHT22;13347;50.984;5.822;2023-05-13T08:55:17;20.70;1.00
24446;DHT22;13347;50.984;5.822;2023-05-13T08:57:44;21.20;99.90
24446;DHT22;13347;50.984;5.822;2023-05-13T09:00:11;21.30;99.90
24446;DHT22;13347;50.984;5.822;2023-05-13T09:02:39;21.70;99.90
24446;DHT22;13347;50.984;5.822;2023-05-13T09:05:06;21.60;23.00
24446;DHT22;13347;50.984;5.822;2023-05-13T09:07:35;21.90;1.00
24446;DHT22;13347;50.984;5.822;2023-05-13T09:10:03;22.20;1.00
24446;DHT22;13347;50.984;5.822;2023-05-13T09:15:12;22.40;1.00
24446;DHT22;13347;50.984;5.822;2023-05-13T09:17:39;22.10;1.00
24446;DHT22;13347;50.984;5.822;2023-05-13T09:20:07;22.30;1.00
24446;DHT22;13347;50.984;5.822;2023-05-13T09:22:37;22.50;1.00
24446;DHT22;13347;50.984;5.822;2023-05-13T09:25:06;22.40;1.00
24446;DHT22;13347;50.984;5.822;2023-05-13T09:27:37;23.00;1.00
24446;DHT22;13347;50.984;5.822;2023-05-13T09:30:05;23.10;1.00
24446;DHT22;13347;50.984;5.822;2023-05-13T09:32:32;23.20;1.00
24446;DHT22;13347;50.984;5.822;2023-05-13T09:35:07;23.50;1.00
24446;DHT22;13347;50.984;5.822;2023-05-13T09:37:34;23.50;1.00
24446;DHT22;13347;50.984;5.822;2023-05-13T09:40:03;24.10;1.00
24446;DHT22;13347;50.984;5.822;2023-05-13T09:42:30;24.00;1.00
24446;DHT22;13347;50.984;5.822;2023-05-13T09:44:57;24.20;1.00
24446;DHT22;13347;50.984;5.822;2023-05-13T09:47:29;24.10;1.00
24446;DHT22;13347;50.984;5.822;2023-05-13T09:49:56;24.20;1.00
24446;DHT22;13347;50.984;5.822;2023-05-13T09:52:23;24.30;1.00
24446;DHT22;13347;50.984;5.822;2023-05-13T09:54:50;24.40;1.00
24446;DHT22;13347;50.984;5.822;2023-05-13T09:57:19;24.20;1.00
24446;DHT22;13347;50.984;5.822;2023-05-13T09:59:46;24.20;1.00
24446;DHT22;13347;50.984;5.822;2023-05-13T10:02:13;24.70;1.00
24446;DHT22;13347;50.984;5.822;2023-05-13T10:04:40;25.30;1.00
24446;DHT22;13347;50.984;5.822;2023-05-13T10:07:08;24.80;1.00
24446;DHT22;13347;50.984;5.822;2023-05-13T10:09:36;24.60;1.00
24446;DHT22;13347;50.984;5.822;2023-05-13T10:12:05;24.40;1.00
24446;DHT22;13347;50.984;5.822;2023-05-13T10:14:34;24.30;1.00
24446;DHT22;13347;50.984;5.822;2023-05-13T10:17:02;24.30;1.00
24446;DHT22;13347;50.984;5.822;2023-05-13T10:19:29;24.70;1.00
24446;DHT22;13347;50.984;5.822;2023-05-13T10:21:56;24.60;1.00
24446;DHT22;13347;50.984;5.822;2023-05-13T10:24:24;24.60;1.00
24446;DHT22;13347;50.984;5.822;2023-05-13T10:26:51;24.50;1.00
24446;DHT22;13347;50.984;5.822;2023-05-13T10:29:18;24.60;1.00
24446;DHT22;13347;50.984;5.822;2023-05-13T10:31:49;25.10;99.90
24446;DHT22;13347;50.984;5.822;2023-05-13T10:34:16;25.60;1.00
24446;DHT22;13347;50.984;5.822;2023-05-13T10:44:52;25.60;99.90
24446;DHT22;13347;50.984;5.822;2023-05-13T10:47:21;25.40;99.90
24446;DHT22;13347;50.984;5.822;2023-05-13T10:49:49;25.70;99.90
24446;DHT22;13347;50.984;5.822;2023-05-13T10:52:16;25.70;99.90
24446;DHT22;13347;50.984;5.822;2023-05-13T10:54:43;25.90;99.90
24446;DHT22;13347;50.984;5.822;2023-05-13T10:57:26;25.90;99.90
24446;DHT22;13347;50.984;5.822;2023-05-13T11:00:09;26.00;99.90
24446;DHT22;13347;50.984;5.822;2023-05-13T11:02:39;26.60;99.90
24446;DHT22;13347;50.984;5.822;2023-05-13T11:05:06;26.90;99.90
24446;DHT22;13347;50.984;5.822;2023-05-13T11:07:36;26.90;99.90
24446;DHT22;13347;50.984;5.822;2023-05-13T11:10:15;26.90;99.90
24446;DHT22;13347;50.984;5.822;2023-05-13T11:15:41;26.00;99.90
24446;DHT22;13347;50.984;5.822;2023-05-13T11:18:10;26.30;99.90
24446;DHT22;13347;50.984;5.822;2023-05-13T11:20:37;26.10;99.90
24446;DHT22;13347;50.984;5.822;2023-05-13T11:23:04;25.90;99.90
24446;DHT22;13347;50.984;5.822;2023-05-13T11:25:33;25.60;99.90
24446;DHT22;13347;50.984;5.822;2023-05-13T11:27:59;25.40;99.90
24446;DHT22;13347;50.984;5.822;2023-05-13T11:30:27;24.80;99.90
24446;DHT22;13347;50.984;5.822;2023-05-13T11:32:54;25.20;99.90
24446;DHT22;13347;50.984;5.822;2023-05-13T11:35:23;25.10;99.90
24446;DHT22;13347;50.984;5.822;2023-05-13T11:37:50;25.30;99.90
24446;DHT22;13347;50.984;5.822;2023-05-13T11:40:20;25.90;99.90
24446;DHT22;13347;50.984;5.822;2023-05-13T11:42:47;26.30;99.90
24446;DHT22;13347;50.984;5.822;2023-05-13T11:45:14;26.90;99.90
24446;DHT22;13347;50.984;5.822;2023-05-13T11:47:41;26.20;99.90
24446;DHT22;13347;50.984;5.822;2023-05-13T11:50:16;25.70;99.90
24446;DHT22;13347;50.984;5.822;2023-05-13T11:52:50;25.70;99.90
24446;DHT22;13347;50.984;5.822;2023-05-13T11:55:24;25.40;99.90
24446;DHT22;13347;50.984;5.822;2023-05-13T11:57:52;25.70;99.90
24446;DHT22;13347;50.984;5.822;2023-05-13T12:00:23;25.60;99.90
24446;DHT22;13347;50.984;5.822;2023-05-13T12:02:50;25.60;99.90
24446;DHT22;13347;50.984;5.822;2023-05-13T12:05:17;25.60;99.90
24446;DHT22;13347;50.984;5.822;2023-05-13T12:07:45;25.40;99.90
24446;DHT22;13347;50.984;5.822;2023-05-13T12:10:13;25.20;99.90
24446;DHT22;13347;50.984;5.822;2023-05-13T12:12:40;25.50;99.90
24446;DHT22;13347;50.984;5.822;2023-05-13T12:15:09;25.70;99.90
24446;DHT22;13347;50.984;5.822;2023-05-13T12:17:36;25.90;99.90
24446;DHT22;13347;50.984;5.822;2023-05-13T12:20:07;25.20;99.90
24446;DHT22;13347;50.984;5.822;2023-05-13T12:22:35;25.20;99.90
24446;DHT22;13347;50.984;5.822;2023-05-13T12:27:51;25.80;99.90
24446;DHT22;13347;50.984;5.822;2023-05-13T12:30:18;26.20;99.90
24446;DHT22;13347;50.984;5.822;2023-05-13T12:32:44;26.60;99.90
24446;DHT22;13347;50.984;5.822;2023-05-13T12:35:11;26.30;99.90
24446;DHT22;13347;50.984;5.822;2023-05-13T12:37:39;25.90;99.90
24446;DHT22;13347;50.984;5.822;2023-05-13T12:40:09;25.40;99.90
24446;DHT22;13347;50.984;5.822;2023-05-13T12:42:36;26.20;99.90
24446;DHT22;13347;50.984;5.822;2023-05-13T12:45:05;26.90;99.90
24446;DHT22;13347;50.984;5.822;2023-05-13T12:47:46;27.10;99.90
24446;DHT22;13347;50.984;5.822;2023-05-13T12:50:14;25.90;99.90
24446;DHT22;13347;50.984;5.822;2023-05-13T12:52:41;24.50;99.90
24446;DHT22;13347;50.984;5.822;2023-05-13T12:55:08;23.60;99.90
24446;DHT22;13347;50.984;5.822;2023-05-13T12:57:36;23.20;99.90
24446;DHT22;13347;50.984;5.822;2023-05-13T13:00:05;23.00;99.90
24446;DHT22;13347;50.984;5.822;2023-05-13T13:02:34;23.10;99.90
24446;DHT22;13347;50.984;5.822;2023-05-13T13:05:01;23.90;99.90
24446;DHT22;13347;50.984;5.822;2023-05-13T13:07:28;24.90;99.90
24446;DHT22;13347;50.984;5.822;2023-05-13T13:09:55;24.80;99.90
24446;DHT22;13347;50.984;5.822;2023-05-13T13:12:21;24.40;99.90
24446;DHT22;13347;50.984;5.822;2023-05-13T13:14:48;23.50;99.90
24446;DHT22;13347;50.984;5.822;2023-05-13T13:17:17;23.00;99.90
24446;DHT22;13347;50.984;5.822;2023-05-13T13:19:43;22.90;99.90
24446;DHT22;13347;50.984;5.822;2023-05-13T13:22:11;22.90;99.90
24446;DHT22;13347;50.984;5.822;2023-05-13T13:24:38;23.00;99.90
24446;DHT22;13347;50.984;5.822;2023-05-13T13:27:04;23.20;99.90
24446;DHT22;13347;50.984;5.822;2023-05-13T13:29:31;23.60;99.90
24446;DHT22;13347;50.984;5.822;2023-05-13T13:31:58;23.60;99.90
24446;DHT22;13347;50.984;5.822;2023-05-13T13:34:27;23.30;99.90
24446;DHT22;13347;50.984;5.822;2023-05-13T13:36:54;23.00;99.90
24446;DHT22;13347;50.984;5.822;2023-05-13T13:39:21;23.00;99.90
24446;DHT22;13347;50.984;5.822;2023-05-13T13:41:47;23.20;99.90
24446;DHT22;13347;50.984;5.822;2023-05-13T13:44:14;23.90;99.90
24446;DHT22;13347;50.984;5.822;2023-05-13T13:46:41;24.60;99.90
24446;DHT22;13347;50.984;5.822;2023-05-13T13:49:08;24.50;99.90
24446;DHT22;13347;50.984;5.822;2023-05-13T13:51:37;24.00;99.90
24446;DHT22;13347;50.984;5.822;2023-05-13T13:54:04;24.30;99.90
24446;DHT22;13347;50.984;5.822;2023-05-13T13:56:31;24.30;99.90
24446;DHT22;13347;50.984;5.822;2023-05-13T13:58:57;24.00;99.90
24446;DHT22;13347;50.984;5.822;2023-05-13T14:01:24;23.70;99.90
24446;DHT22;13347;50.984;5.822;2023-05-13T14:03:51;22.80;99.90
24446;DHT22;13347;50.984;5.822;2023-05-13T14:06:18;22.40;99.90
24446;DHT22;13347;50.984;5.822;2023-05-13T14:08:46;20.90;99.90
24446;DHT22;13347;50.984;5.822;2023-05-13T14:11:15;19.20;99.90
24446;DHT22;13347;50.984;5.822;2023-05-13T14:13:42;18.40;99.90
24446;DHT22;13347;50.984;5.822;2023-05-13T14:16:09;18.00;1.00
24446;DHT22;13347;50.984;5.822;2023-05-13T14:18:35;17.80;1.00
24446;DHT22;13347;50.984;5.822;2023-05-13T14:21:02;17.90;1.00
24446;DHT22;13347;50.984;5.822;2023-05-13T14:23:29;18.10;1.00
24446;DHT22;13347;50.984;5.822;2023-05-13T14:25:58;18.40;1.00
24446;DHT22;13347;50.984;5.822;2023-05-13T14:28:24;18.50;1.00
24446;DHT22;13347;50.984;5.822;2023-05-13T14:30:51;18.60;1.00
24446;DHT22;13347;50.984;5.822;2023-05-13T14:33:18;18.80;1.00
24446;DHT22;13347;50.984;5.822;2023-05-13T14:35:45;18.90;1.00
24446;DHT22;13347;50.984;5.822;2023-05-13T14:38:12;19.40;1.00
24446;DHT22;13347;50.984;5.822;2023-05-13T14:40:39;19.80;1.00
24446;DHT22;13347;50.984;5.822;2023-05-13T14:43:07;19.80;1.00
24446;DHT22;13347;50.984;5.822;2023-05-13T14:45:34;19.70;1.00
24446;DHT22;13347;50.984;5.822;2023-05-13T14:48:01;19.80;1.00
24446;DHT22;13347;50.984;5.822;2023-05-13T14:50:28;19.40;1.00
24446;DHT22;13347;50.984;5.822;2023-05-13T14:52:55;18.80;1.00
24446;DHT22;13347;50.984;5.822;2023-05-13T14:55:21;18.20;1.00
24446;DHT22;13347;50.984;5.822;2023-05-13T14:57:48;17.90;1.00
24446;DHT22;13347;50.984;5.822;2023-05-13T15:00:17;18.00;1.00
24446;DHT22;13347;50.984;5.822;2023-05-13T15:02:44;18.00;99.90
24446;DHT22;13347;50.984;5.822;2023-05-13T15:05:11;18.10;1.00
24446;DHT22;13347;50.984;5.822;2023-05-13T15:07:38;18.40;1.00
24446;DHT22;13347;50.984;5.822;2023-05-13T15:10:05;18.60;99.90
24446;DHT22;13347;50.984;5.822;2023-05-13T15:12:32;18.50;1.00
24446;DHT22;13347;50.984;5.822;2023-05-13T15:14:59;18.50;1.00
24446;DHT22;13347;50.984;5.822;2023-05-13T15:17:28;18.60;1.00
24446;DHT22;13347;50.984;5.822;2023-05-13T15:19:55;18.60;99.90
24446;DHT22;13347;50.984;5.822;2023-05-13T15:22:22;18.60;1.00
24446;DHT22;13347;50.984;5.822;2023-05-13T15:24:48;18.60;1.00
24446;DHT22;13347;50.984;5.822;2023-05-13T15:27:15;18.70;1.00
24446;DHT22;13347;50.984;5.822;2023-05-13T15:29:43;18.60;1.00
24446;DHT22;13347;50.984;5.822;2023-05-13T15:32:10;18.40;1.00
24446;DHT22;13347;50.984;5.822;2023-05-13T15:34:38;18.40;1.00
24446;DHT22;13347;50.984;5.822;2023-05-13T15:37:05;18.40;1.00
24446;DHT22;13347;50.984;5.822;2023-05-13T15:39:32;18.50;1.00
24446;DHT22;13347;50.984;5.822;2023-05-13T15:41:59;18.90;1.00
24446;DHT22;13347;50.984;5.822;2023-05-13T15:44:26;19.30;1.00
24446;DHT22;13347;50.984;5.822;2023-05-13T15:46:53;19.90;99.90
24446;DHT22;13347;50.984;5.822;2023-05-13T15:49:20;20.40;1.00
24446;DHT22;13347;50.984;5.822;2023-05-13T15:51:48;20.70;1.00
24446;DHT22;13347;50.984;5.822;2023-05-13T15:54:15;20.70;99.90
24446;DHT22;13347;50.984;5.822;2023-05-13T15:56:42;20.90;99.90
24446;DHT22;13347;50.984;5.822;2023-05-13T15:59:09;21.10;99.90
24446;DHT22;13347;50.984;5.822;2023-05-13T16:01:36;21.50;1.00